Time;durP1;ratioP1;P1;durP2;ratioP2;P2;SDS_P1;SDS_P2;PMS_P1;PMS_P2;Temp;Humidity;BMP_temperature;BMP_pressure;BME280_temperature;BME280_humidity;BME280_pressure;Samples;Min_cycle;Max_cycle;Signal;HPM_P1;HPM_P2
2022/05/13 00:01:53;;;;;;;9.27;8.40;;;19.50;99.90;;;;;;5111253;28;20458;-84
2022/05/13 00:04:20;;;;;;;10.23;9.33;;;19.40;99.90;;;;;;5111737;28;20447;-84
2022/05/13 00:06:47;;;;;;;10.87;9.87;;;19.50;99.90;;;;;;5111783;28;21000;-84
2022/05/13 00:09:15;;;;;;;9.23;8.53;;;19.50;99.90;;;;;;5114714;28;20514;-84
2022/05/13 00:11:42;;;;;;;9.70;9.00;;;19.50;99.90;;;;;;5114089;28;20869;-83
2022/05/13 00:14:10;;;;;;;10.27;9.27;;;19.50;99.90;;;;;;5111994;28;20443;-83
2022/05/13 00:16:37;;;;;;;9.80;9.10;;;19.40;99.90;;;;;;5112027;28;20870;-83
2022/05/13 00:19:04;;;;;;;9.33;8.50;;;19.40;99.90;;;;;;5111327;28;20443;-83
2022/05/13 00:21:31;;;;;;;10.37;9.47;;;19.30;99.90;;;;;;5117096;28;20464;-84
2022/05/13 00:23:58;;;;;;;11.80;10.60;;;19.40;99.90;;;;;;5112218;28;20860;-83
2022/05/13 00:26:26;;;;;;;10.47;9.37;;;19.40;99.90;;;;;;5110983;28;20471;-83
2022/05/13 00:28:53;;;;;;;11.70;10.57;;;19.40;99.90;;;;;;5111982;28;20452;-83
2022/05/13 00:31:20;;;;;;;12.00;10.80;;;19.50;99.90;;;;;;5116378;28;21069;-83
2022/05/13 00:33:46;;;;;;;10.23;9.13;;;19.50;99.90;;;;;;5114055;28;20531;-83
2022/05/13 00:36:13;;;;;;;10.37;9.40;;;19.50;99.90;;;;;;5115959;28;20515;-83
2022/05/13 00:38:40;;;;;;;10.27;9.37;;;19.50;99.90;;;;;;5116620;28;20455;-83
2022/05/13 00:41:06;;;;;;;13.13;9.27;;;19.60;99.90;;;;;;5116731;28;20455;-83
2022/05/13 00:43:51;;;;;;;10.50;9.33;;;19.50;99.90;;;;;;5120569;28;20550;-83
2022/05/13 00:46:18;;;;;;;10.23;9.17;;;19.60;99.90;;;;;;5116265;28;20466;-84
2022/05/13 00:48:46;;;;;;;10.40;9.57;;;19.50;99.90;;;;;;5114916;28;21041;-83
2022/05/13 00:51:18;;;;;;;10.47;9.47;;;19.50;99.90;;;;;;5117083;28;20792;-83
2022/05/13 00:53:46;;;;;;;9.53;8.63;;;19.40;99.90;;;;;;5132561;28;20435;-82
2022/05/13 00:56:13;;;;;;;9.03;8.13;;;19.50;99.90;;;;;;5138955;28;20483;-82
2022/05/13 00:58:43;;;;;;;10.17;9.27;;;19.50;99.90;;;;;;5127065;28;20450;-82
2022/05/13 01:01:11;;;;;;;10.23;9.43;;;19.50;99.90;;;;;;5123318;28;20455;-83
2022/05/13 01:03:38;;;;;;;11.63;10.63;;;19.50;99.90;;;;;;5138521;28;20436;-82
2022/05/13 01:06:07;;;;;;;10.03;9.13;;;19.50;99.90;;;;;;5132005;28;20471;-83
2022/05/13 01:08:36;;;;;;;10.00;9.00;;;19.60;99.90;;;;;;5115411;28;20489;-83
2022/05/13 01:11:07;;;;;;;9.57;8.73;;;19.50;99.90;;;;;;5114601;28;20442;-84
2022/05/13 01:13:37;;;;;;;10.87;9.77;;;19.50;99.90;;;;;;5128608;28;20432;-82
2022/05/13 01:16:04;;;;;;;9.17;8.30;;;19.50;99.90;;;;;;5137478;28;20527;-82
2022/05/13 01:18:34;;;;;;;12.77;9.20;;;19.50;99.90;;;;;;5137905;28;20427;-85
2022/05/13 01:21:03;;;;;;;10.70;9.73;;;19.50;99.90;;;;;;5119370;28;20452;-85
2022/05/13 01:23:33;;;;;;;9.40;8.60;;;19.50;99.90;;;;;;5117719;28;20478;-83
2022/05/13 01:26:02;;;;;;;10.00;9.20;;;19.50;99.90;;;;;;5114907;28;20475;-83
2022/05/13 01:28:31;;;;;;;14.50;10.67;;;19.40;99.90;;;;;;5114329;28;20955;-84
2022/05/13 01:31:00;;;;;;;13.17;11.97;;;19.30;99.90;;;;;;5114325;28;20440;-84
2022/05/13 01:33:28;;;;;;;12.43;11.50;;;19.30;99.90;;;;;;5116846;28;20974;-84
2022/05/13 01:35:58;;;;;;;12.00;10.30;;;19.10;99.90;;;;;;5115568;28;20469;-84
2022/05/13 01:38:27;;;;;;;12.00;10.90;;;19.10;99.90;;;;;;5126164;28;20470;-83
2022/05/13 01:40:56;;;;;;;11.93;10.83;;;19.10;99.90;;;;;;5139362;28;20424;-83
2022/05/13 01:43:23;;;;;;;12.60;11.50;;;19.00;99.90;;;;;;5121994;28;20435;-84
2022/05/13 01:45:50;;;;;;;10.00;9.00;;;19.10;99.90;;;;;;5138236;28;20452;-82
2022/05/13 01:48:18;;;;;;;10.20;9.30;;;19.00;99.90;;;;;;5122347;28;20435;-83
2022/05/13 01:50:44;;;;;;;11.03;8.30;;;18.90;99.90;;;;;;5135979;28;20442;-82
2022/05/13 01:53:11;;;;;;;9.13;8.33;;;18.80;99.90;;;;;;5138310;28;20460;-83
2022/05/13 01:55:42;;;;;;;10.40;9.53;;;18.80;99.90;;;;;;5136700;28;20424;-84
2022/05/13 01:58:11;;;;;;;8.57;7.93;;;18.70;99.90;;;;;;5124324;28;20536;-84
2022/05/13 02:00:39;;;;;;;8.83;8.00;;;18.60;99.90;;;;;;5116738;28;20521;-83
2022/05/13 02:05:46;;;;;;;8.47;7.67;;;18.40;99.90;;;;;;5100635;27;20441;-84
2022/05/13 02:08:13;;;;;;;7.90;7.20;;;18.40;99.90;;;;;;5133373;28;20443;-84
2022/05/13 02:10:39;;;;;;;10.17;6.77;;;18.30;99.90;;;;;;5124079;28;20517;-84
2022/05/13 02:13:06;;;;;;;9.40;8.47;;;18.20;99.90;;;;;;5113955;28;20456;-85
2022/05/13 02:15:34;;;;;;;9.27;7.90;;;18.00;99.90;;;;;;5114061;28;20818;-84
2022/05/13 02:18:01;;;;;;;11.33;7.70;;;17.80;99.90;;;;;;5113319;28;20498;-84
2022/05/13 02:20:28;;;;;;;12.10;8.60;;;17.80;99.90;;;;;;5113921;28;20448;-84
2022/05/13 02:22:54;;;;;;;11.00;9.03;;;17.70;99.90;;;;;;5115438;28;20441;-84
2022/05/13 02:25:21;;;;;;;12.07;9.30;;;17.60;99.90;;;;;;5113711;28;20450;-85
2022/05/13 02:27:48;;;;;;;10.23;9.20;;;17.50;99.90;;;;;;5113002;28;20463;-84
2022/05/13 02:30:15;;;;;;;9.97;8.93;;;17.50;99.90;;;;;;5113655;28;20441;-84
2022/05/13 02:32:43;;;;;;;10.77;9.73;;;17.50;99.90;;;;;;5113607;28;20460;-85
2022/05/13 02:35:11;;;;;;;11.80;10.60;;;17.50;99.90;;;;;;5112830;28;20437;-85
2022/05/13 02:37:38;;;;;;;13.50;9.87;;;17.50;99.90;;;;;;5112722;28;20564;-85
2022/05/13 02:40:05;;;;;;;11.80;9.43;;;17.50;99.90;;;;;;5114791;28;20446;-85
2022/05/13 02:42:32;;;;;;;11.20;10.10;;;17.40;99.90;;;;;;5118336;28;20434;-84
2022/05/13 02:45:00;;;;;;;13.17;9.17;;;17.40;99.90;;;;;;5116575;28;20455;-84
2022/05/13 02:47:26;;;;;;;10.23;9.13;;;17.30;99.90;;;;;;5113735;28;20453;-84
2022/05/13 02:52:35;;;;;;;11.27;10.17;;;17.20;99.90;;;;;;5112192;27;20451;-85
2022/05/13 02:55:02;;;;;;;10.17;9.37;;;17.20;99.90;;;;;;5112887;28;20438;-84
2022/05/13 02:57:29;;;;;;;11.40;10.20;;;17.20;99.90;;;;;;5111666;28;20480;-84
2022/05/13 02:59:55;;;;;;;12.10;9.00;;;17.10;99.90;;;;;;5113314;28;20478;-84
2022/05/13 03:02:22;;;;;;;10.97;9.03;;;17.00;99.90;;;;;;5117460;28;20450;-84
2022/05/13 03:04:49;;;;;;;10.93;9.30;;;17.00;99.90;;;;;;5112341;28;20445;-84
2022/05/13 03:07:17;;;;;;;11.60;9.77;;;17.00;99.90;;;;;;5112422;28;20454;-84
2022/05/13 03:09:43;;;;;;;11.60;9.03;;;17.10;99.90;;;;;;5117684;28;20479;-83
2022/05/13 03:12:12;;;;;;;11.40;9.70;;;17.10;99.90;;;;;;5129880;28;20806;-84
2022/05/13 03:14:39;;;;;;;10.33;9.37;;;17.10;99.90;;;;;;5113983;28;20476;-84
2022/05/13 03:17:06;;;;;;;9.60;8.80;;;17.20;99.90;;;;;;5119957;28;20480;-84
2022/05/13 03:19:35;;;;;;;10.40;9.30;;;17.20;99.90;;;;;;5112289;28;20446;-84
2022/05/13 03:22:02;;;;;;;11.10;10.00;;;17.20;99.90;;;;;;5112781;28;20447;-84
2022/05/13 03:24:30;;;;;;;9.63;8.70;;;17.30;99.90;;;;;;5113016;28;21122;-83
2022/05/13 03:26:57;;;;;;;10.50;9.33;;;17.20;99.90;;;;;;5112160;28;20479;-84
2022/05/13 03:29:24;;;;;;;9.90;9.00;;;17.10;99.90;;;;;;5113402;28;20449;-84
2022/05/13 03:31:51;;;;;;;10.10;9.30;;;17.00;99.90;;;;;;5112907;28;20450;-84
2022/05/13 03:34:18;;;;;;;10.63;9.60;;;17.10;99.90;;;;;;5113286;28;20445;-84
2022/05/13 03:36:44;;;;;;;12.10;9.80;;;17.10;99.90;;;;;;5112381;28;20485;-84
2022/05/13 03:39:11;;;;;;;13.13;9.37;;;17.10;99.90;;;;;;5110999;28;20445;-84
2022/05/13 03:41:39;;;;;;;14.23;9.90;;;17.10;99.90;;;;;;5116659;28;20794;-84
2022/05/13 03:44:06;;;;;;;15.50;9.77;;;17.00;99.90;;;;;;5134694;28;20447;-82
2022/05/13 03:46:33;;;;;;;10.00;9.00;;;17.00;99.90;;;;;;5127522;28;20985;-83
2022/05/13 03:49:01;;;;;;;11.40;9.53;;;17.00;99.90;;;;;;5121219;28;20450;-83
2022/05/13 03:51:28;;;;;;;9.17;8.37;;;17.10;99.90;;;;;;5112932;28;20450;-84
2022/05/13 03:53:55;;;;;;;13.23;9.33;;;17.10;99.90;;;;;;5112755;28;20825;-84
2022/05/13 03:56:22;;;;;;;9.00;8.10;;;17.20;99.90;;;;;;5113663;28;20459;-84
2022/05/13 03:58:50;;;;;;;11.30;9.97;;;17.10;99.90;;;;;;5125197;28;20448;-83
2022/05/13 04:01:17;;;;;;;9.67;8.77;;;17.20;99.90;;;;;;5124428;28;20470;-83
2022/05/13 04:03:47;;;;;;;10.23;9.33;;;17.20;99.90;;;;;;5115645;28;20521;-84
2022/05/13 04:08:58;;;;;;;15.70;9.07;;;17.20;99.90;;;;;;5122703;28;20439;-84
2022/05/13 04:11:26;;;;;;;8.60;7.80;;;17.30;99.90;;;;;;5120526;28;20442;-83
2022/05/13 04:16:38;;;;;;;11.00;9.87;;;17.30;99.90;;;;;;5113025;28;20510;-84
2022/05/13 04:19:05;;;;;;;13.37;9.43;;;17.30;99.90;;;;;;5099789;23;20492;-84
2022/05/13 04:21:35;;;;;;;9.80;8.80;;;17.30;99.90;;;;;;5059850;28;20436;-80
2022/05/13 04:24:05;;;;;;;15.47;12.77;;;17.40;99.90;;;;;;5051622;28;20444;-81
2022/05/13 04:26:32;;;;;;;9.97;8.60;;;17.50;99.90;;;;;;5052633;28;21069;-81
2022/05/13 04:29:01;;;;;;;12.87;8.60;;;17.50;99.90;;;;;;5039285;28;20511;-83
2022/05/13 04:31:31;;;;;;;9.80;8.80;;;17.50;99.90;;;;;;5039014;28;20460;-81
2022/05/13 04:33:58;;;;;;;10.00;9.00;;;17.50;99.90;;;;;;5037119;28;20468;-85
2022/05/13 04:36:26;;;;;;;11.10;9.37;;;17.50;99.90;;;;;;5034370;28;20896;-82
2022/05/13 04:38:53;;;;;;;9.90;7.90;;;17.60;99.90;;;;;;5032049;28;20915;-81
2022/05/13 04:44:07;;;;;;;11.50;9.37;;;17.70;99.90;;;;;;5036192;28;20449;-85
2022/05/13 04:46:34;;;;;;;11.03;9.23;;;17.80;99.90;;;;;;5036027;28;20445;-86
2022/05/13 04:49:01;;;;;;;10.20;9.30;;;17.80;99.90;;;;;;5035536;28;20478;-85
2022/05/13 04:51:27;;;;;;;12.47;10.70;;;17.90;99.90;;;;;;5035409;28;20450;-86
2022/05/13 04:53:56;;;;;;;11.67;9.73;;;17.90;99.90;;;;;;5035742;28;20481;-85
2022/05/13 04:56:25;;;;;;;12.80;8.80;;;18.00;99.90;;;;;;5035862;28;20485;-86
2022/05/13 04:58:52;;;;;;;10.40;9.50;;;18.00;99.90;;;;;;5033341;28;21017;-86
2022/05/13 05:01:21;;;;;;;11.00;8.23;;;18.00;99.90;;;;;;5036839;28;20448;-87
2022/05/13 05:03:48;;;;;;;10.47;9.33;;;18.00;99.90;;;;;;5034915;28;20455;-84
2022/05/13 05:06:17;;;;;;;9.53;8.63;;;18.00;99.90;;;;;;5033872;28;21105;-84
2022/05/13 05:08:45;;;;;;;12.30;9.10;;;18.00;99.90;;;;;;5034783;28;20461;-86
2022/05/13 05:11:13;;;;;;;10.33;8.33;;;18.00;99.90;;;;;;5035087;28;20441;-85
2022/05/13 05:13:42;;;;;;;10.03;9.00;;;18.00;99.90;;;;;;5035544;28;20450;-86
2022/05/13 05:16:09;;;;;;;9.50;8.70;;;17.90;99.90;;;;;;5036753;28;21231;-86
2022/05/13 05:18:39;;;;;;;8.57;7.87;;;17.90;99.90;;;;;;5035594;28;20494;-84
2022/05/13 05:21:06;;;;;;;9.73;8.83;;;17.90;99.90;;;;;;5032799;28;20441;-84
2022/05/13 05:23:35;;;;;;;10.00;8.70;;;18.00;99.90;;;;;;5036732;28;20442;-84
2022/05/13 05:26:03;;;;;;;8.80;8.00;;;17.90;99.90;;;;;;5046970;28;20451;-83
2022/05/13 05:28:30;;;;;;;9.20;8.30;;;17.90;99.90;;;;;;5043059;28;20584;-83
2022/05/13 05:31:00;;;;;;;9.50;8.60;;;18.00;99.90;;;;;;5040526;28;20456;-83
2022/05/13 05:33:26;;;;;;;9.40;8.47;;;18.00;99.90;;;;;;5039425;28;20448;-82
2022/05/13 05:35:55;;;;;;;8.50;7.70;;;18.00;99.90;;;;;;5040414;28;20571;-84
2022/05/13 05:38:21;;;;;;;7.63;6.90;;;18.10;99.90;;;;;;5046516;28;20483;-84
2022/05/13 05:40:51;;;;;;;6.97;6.27;;;18.10;99.90;;;;;;5049961;28;20785;-84
2022/05/13 05:43:19;;;;;;;10.53;7.30;;;18.10;99.90;;;;;;5040490;28;20452;-85
2022/05/13 05:45:46;;;;;;;9.07;8.27;;;18.20;99.90;;;;;;5039674;28;20489;-85
2022/05/13 05:48:15;;;;;;;10.23;8.20;;;18.40;99.90;;;;;;5040171;28;20850;-84
2022/05/13 05:50:42;;;;;;;14.27;7.93;;;18.50;99.90;;;;;;5039364;28;20456;-84
2022/05/13 05:53:10;;;;;;;8.63;7.00;;;18.50;99.90;;;;;;5039711;28;20462;-84
2022/05/13 05:58:22;;;;;;;8.60;7.70;;;18.70;99.90;;;;;;5045912;28;20487;-85
2022/05/13 06:00:50;;;;;;;8.80;6.70;;;18.70;99.90;;;;;;5059154;28;20447;-85
2022/05/13 06:03:18;;;;;;;8.93;8.10;;;18.70;99.90;;;;;;5039880;28;20902;-83
2022/05/13 06:05:47;;;;;;;11.23;7.13;;;18.80;99.90;;;;;;5025895;28;20962;-84
2022/05/13 06:08:15;;;;;;;8.13;7.20;;;18.70;99.90;;;;;;5039040;28;20473;-83
2022/05/13 06:10:41;;;;;;;7.20;5.80;;;18.70;99.90;;;;;;5038319;28;20458;-84
2022/05/13 06:13:10;;;;;;;7.03;6.33;;;18.70;99.90;;;;;;5039405;28;20451;-84
2022/05/13 06:15:36;;;;;;;8.70;7.33;;;18.60;99.90;;;;;;5038600;28;20467;-85
2022/05/13 06:18:04;;;;;;;8.60;6.60;;;18.60;99.90;;;;;;5039445;28;20497;-84
2022/05/13 06:20:32;;;;;;;8.80;7.90;;;18.60;99.90;;;;;;5039136;28;20458;-85
2022/05/13 06:22:59;;;;;;;8.50;7.17;;;18.60;99.90;;;;;;5038057;28;20451;-85
2022/05/13 06:25:27;;;;;;;8.80;6.30;;;18.60;99.90;;;;;;5038051;28;20448;-84
2022/05/13 06:27:55;;;;;;;9.00;6.63;;;18.70;99.90;;;;;;5038171;28;20467;-83
2022/05/13 06:30:25;;;;;;;7.53;6.40;;;18.70;99.90;;;;;;5037842;28;20452;-84
2022/05/13 06:32:51;;;;;;;8.43;6.30;;;18.70;99.90;;;;;;5050088;28;20482;-83
2022/05/13 06:35:19;;;;;;;9.80;6.87;;;18.70;99.90;;;;;;5054304;28;20431;-83
2022/05/13 06:37:46;;;;;;;6.60;5.80;;;18.80;99.90;;;;;;5050484;28;20493;-83
2022/05/13 06:40:13;;;;;;;8.83;6.17;;;19.10;99.90;;;;;;5046441;28;20450;-84
2022/05/13 06:42:41;;;;;;;8.63;6.07;;;19.20;99.90;;;;;;5053925;28;20462;-83
2022/05/13 06:45:08;;;;;;;9.20;6.30;;;19.40;99.90;;;;;;5050591;28;20451;-85
2022/05/13 06:47:36;;;;;;;7.10;6.17;;;19.50;99.90;;;;;;5041492;28;20957;-84
2022/05/13 06:50:05;;;;;;;8.57;6.03;;;19.70;99.90;;;;;;5041259;28;20450;-84
2022/05/13 06:52:32;;;;;;;8.57;5.53;;;19.90;99.90;;;;;;5041332;28;20486;-84
2022/05/13 06:54:59;;;;;;;6.67;5.70;;;20.00;99.90;;;;;;5040924;28;20461;-83
2022/05/13 06:57:26;;;;;;;12.80;6.43;;;20.40;99.90;;;;;;5045341;28;20898;-85
2022/05/13 06:59:54;;;;;;;12.20;5.33;;;20.60;99.90;;;;;;5045748;28;20447;-84
2022/05/13 07:02:22;;;;;;;13.53;6.00;;;20.50;99.90;;;;;;5038712;28;20936;-83
2022/05/13 07:04:50;;;;;;;9.03;6.53;;;20.20;99.90;;;;;;5037903;28;20448;-84
2022/05/13 07:07:17;;;;;;;8.53;5.87;;;20.00;99.90;;;;;;5036960;28;20818;-84
2022/05/13 07:09:43;;;;;;;8.30;6.13;;;19.80;99.90;;;;;;5042893;28;20436;-84
2022/05/13 07:12:11;;;;;;;5.57;4.83;;;19.70;99.90;;;;;;5038370;28;20475;-85
2022/05/13 07:14:38;;;;;;;6.53;4.87;;;19.70;99.90;;;;;;5039101;28;20477;-83
2022/05/13 07:17:06;;;;;;;7.70;5.30;;;19.60;99.90;;;;;;5038475;28;20444;-84
2022/05/13 07:19:33;;;;;;;6.20;5.17;;;19.60;99.90;;;;;;5037772;28;20547;-85
2022/05/13 07:22:00;;;;;;;8.70;5.00;;;19.70;99.90;;;;;;5035539;28;20525;-85
2022/05/13 07:24:27;;;;;;;9.63;5.23;;;19.80;99.90;;;;;;5037566;28;20446;-83
2022/05/13 07:26:54;;;;;;;7.67;5.10;;;19.90;99.90;;;;;;5035712;28;20459;-86
2022/05/13 07:29:21;;;;;;;10.03;5.40;;;20.10;99.90;;;;;;5036046;28;20466;-84
2022/05/13 07:31:48;;;;;;;7.30;4.97;;;20.00;99.90;;;;;;5036637;28;20456;-84
2022/05/13 07:34:16;;;;;;;6.43;4.80;;;20.00;99.90;;;;;;5036515;28;20544;-86
2022/05/13 07:36:42;;;;;;;7.93;5.30;;;20.00;99.90;;;;;;5037057;28;20987;-83
2022/05/13 07:41:54;;;;;;;7.53;5.43;;;20.10;99.90;;;;;;5032499;28;20812;-83
2022/05/13 07:44:20;;;;;;;6.40;4.30;;;20.20;99.90;;;;;;5033264;28;20478;-83
2022/05/13 07:46:47;;;;;;;7.10;4.50;;;20.30;99.90;;;;;;5042724;28;20580;-83
2022/05/13 07:49:15;;;;;;;9.37;4.53;;;20.60;99.90;;;;;;5053576;28;20502;-85
2022/05/13 07:51:43;;;;;;;9.30;4.80;;;20.90;99.90;;;;;;5053505;28;20445;-83
2022/05/13 07:54:10;;;;;;;6.40;4.80;;;21.20;99.90;;;;;;5037395;28;20970;-83
2022/05/13 07:56:37;;;;;;;5.90;4.23;;;21.50;99.90;;;;;;5037153;28;20472;-84
2022/05/13 07:59:03;;;;;;;6.23;3.70;;;21.50;99.20;;;;;;5038522;28;20493;-84
2022/05/13 08:01:30;;;;;;;5.43;3.90;;;21.60;98.60;;;;;;5038771;28;20452;-84
2022/05/13 08:03:57;;;;;;;9.63;4.60;;;21.60;98.60;;;;;;5039471;28;20457;-84
2022/05/13 08:06:24;;;;;;;7.10;4.03;;;21.70;98.90;;;;;;5034028;28;20461;-84
2022/05/13 08:08:56;;;;;;;9.20;4.20;;;21.90;99.20;;;;;;5039971;28;20459;-84
2022/05/13 08:11:29;;;;;;;6.30;3.70;;;22.40;97.80;;;;;;5039593;28;20458;-84
2022/05/13 08:13:57;;;;;;;8.77;4.60;;;23.40;95.90;;;;;;5044533;28;20451;-84
2022/05/13 08:16:25;;;;;;;5.27;4.77;;;23.70;94.00;;;;;;5039185;28;20448;-84
2022/05/13 08:18:53;;;;;;;6.90;4.30;;;24.20;93.30;;;;;;5049360;28;20485;-83
2022/05/13 08:21:20;;;;;;;6.63;3.27;;;24.80;90.80;;;;;;5045919;28;20449;-84
2022/05/13 08:23:47;;;;;;;10.90;3.70;;;25.00;88.70;;;;;;5040542;28;20441;-83
2022/05/13 08:26:28;;;;;;;6.70;3.70;;;24.80;86.40;;;;;;5037438;28;20453;-83
2022/05/13 08:28:55;;;;;;;4.40;3.80;;;24.50;86.50;;;;;;5036527;28;20834;-84
2022/05/13 08:31:21;;;;;;;8.20;4.20;;;24.30;87.30;;;;;;5036144;28;20870;-83
2022/05/13 08:33:48;;;;;;;6.43;3.87;;;24.40;86.90;;;;;;5036989;28;20468;-84
2022/05/13 08:36:15;;;;;;;5.93;3.57;;;24.10;86.90;;;;;;5039709;28;20452;-84
2022/05/13 08:38:43;;;;;;;7.30;4.43;;;23.80;87.40;;;;;;5049469;28;20473;-82
2022/05/13 08:41:19;;;;;;;6.87;3.33;;;23.80;86.60;;;;;;5053792;28;20449;-84
2022/05/13 08:43:51;;;;;;;7.20;3.33;;;23.80;86.00;;;;;;5040500;28;20440;-85
2022/05/13 08:46:28;;;;;;;7.70;3.97;;;24.10;85.80;;;;;;5043784;28;20452;-84
2022/05/13 08:48:59;;;;;;;6.33;3.30;;;24.80;84.10;;;;;;5044155;28;20468;-84
2022/05/13 08:51:36;;;;;;;5.13;3.50;;;25.60;81.20;;;;;;5040516;28;20445;-83
2022/05/13 08:54:10;;;;;;;6.23;3.90;;;25.60;78.40;;;;;;5039224;28;20519;-84
2022/05/13 08:56:38;;;;;;;8.13;3.60;;;25.50;75.50;;;;;;5040159;28;20542;-85
2022/05/13 08:59:10;;;;;;;6.77;3.17;;;26.40;73.40;;;;;;5047196;28;20482;-83
2022/05/13 09:01:42;;;;;;;6.30;3.33;;;27.80;68.30;;;;;;5052798;28;20452;-83
2022/05/13 09:04:11;;;;;;;6.87;3.33;;;28.10;65.80;;;;;;5047152;28;20452;-84
2022/05/13 09:06:43;;;;;;;7.23;3.03;;;27.90;63.70;;;;;;5026304;28;20444;-84
2022/05/13 09:09:12;;;;;;;6.67;3.27;;;27.20;64.90;;;;;;5044635;28;20461;-84
2022/05/13 09:11:47;;;;;;;5.00;3.17;;;26.80;65.20;;;;;;5044602;28;20467;-84
2022/05/13 09:14:28;;;;;;;5.80;3.47;;;26.30;65.70;;;;;;5042908;28;20449;-85
2022/05/13 09:17:11;;;;;;;5.77;2.90;;;27.50;62.30;;;;;;5042329;28;20453;-83
2022/05/13 09:19:41;;;;;;;8.53;3.33;;;28.70;59.60;;;;;;5047466;28;20510;-83
2022/05/13 09:22:11;;;;;;;6.13;2.53;;;30.20;56.70;;;;;;5054519;28;20444;-85
2022/05/13 09:24:38;;;;;;;5.73;2.90;;;29.90;54.80;;;;;;5045548;28;20816;-85
2022/05/13 09:27:05;;;;;;;7.37;3.17;;;28.70;56.00;;;;;;5046076;28;20448;-83
2022/05/13 09:29:41;;;;;;;7.27;2.83;;;29.30;56.90;;;;;;5045500;28;20472;-85
2022/05/13 09:32:14;;;;;;;6.20;3.50;;;29.50;55.10;;;;;;5036914;28;20440;-83
2022/05/13 09:34:49;;;;;;;6.97;3.23;;;29.00;56.50;;;;;;5034044;28;20436;-84
2022/05/13 09:37:20;;;;;;;9.90;4.00;;;28.20;57.00;;;;;;5053073;28;20432;-83
2022/05/13 09:39:49;;;;;;;4.67;3.17;;;26.90;59.00;;;;;;5048479;28;20526;-84
2022/05/13 09:42:21;;;;;;;5.87;3.80;;;26.20;60.20;;;;;;5036179;28;20508;-83
2022/05/13 09:44:51;;;;;;;3.93;3.30;;;25.90;62.70;;;;;;5035389;28;20473;-82
2022/05/13 09:47:30;;;;;;;7.80;3.43;;;25.40;64.40;;;;;;5032765;28;20533;-83
2022/05/13 09:50:00;;;;;;;7.47;3.30;;;25.10;66.10;;;;;;5046049;28;20511;-84
2022/05/13 09:52:29;;;;;;;12.13;4.20;;;24.80;67.10;;;;;;5042199;28;20445;-84
2022/05/13 09:55:04;;;;;;;5.80;3.30;;;24.70;67.30;;;;;;5048265;28;20441;-82
2022/05/13 09:57:33;;;;;;;6.97;3.47;;;24.50;67.20;;;;;;5034702;28;20460;-82
2022/05/13 10:00:04;;;;;;;4.37;3.00;;;24.30;67.80;;;;;;5030152;28;20469;-82
2022/05/13 10:02:35;;;;;;;7.43;3.17;;;24.20;69.00;;;;;;5035835;28;20454;-84
2022/05/13 10:05:15;;;;;;;6.80;3.97;;;24.10;68.50;;;;;;5049827;28;20454;-83
2022/05/13 10:07:54;;;;;;;12.63;8.03;;;23.80;70.70;;;;;;5036139;28;20452;-83
2022/05/13 10:16:01;;;;;;;6.83;3.30;;;23.10;69.20;;;;;;5037342;28;20440;-84
2022/05/13 10:18:30;;;;;;;6.47;2.47;;;23.60;68.40;;;;;;5036212;28;20997;-84
2022/05/13 10:21:01;;;;;;;7.53;2.90;;;24.00;67.10;;;;;;5039372;28;20445;-84
2022/05/13 10:23:32;;;;;;;5.37;2.67;;;24.30;66.80;;;;;;5040499;28;21074;-83
2022/05/13 10:26:01;;;;;;;5.60;2.90;;;24.40;65.50;;;;;;5041290;28;20474;-84
2022/05/13 10:28:34;;;;;;;5.10;2.90;;;24.20;64.70;;;;;;5044569;28;20469;-84
2022/05/13 10:31:08;;;;;;;6.77;3.23;;;23.90;66.70;;;;;;5040757;28;20987;-84
2022/05/13 10:33:40;;;;;;;5.57;3.97;;;24.20;67.80;;;;;;5043755;28;20500;-83
2022/05/13 10:36:12;;;;;;;8.83;3.13;;;24.60;66.10;;;;;;5052878;28;20540;-84
2022/05/13 10:38:44;;;;;;;4.00;3.37;;;24.90;65.00;;;;;;5034256;28;20481;-84
2022/05/13 10:41:22;;;;;;;7.93;2.70;;;24.90;65.30;;;;;;5036701;28;20503;-84
2022/05/13 10:43:54;;;;;;;5.07;3.00;;;24.90;64.70;;;;;;5038279;28;20460;-84
2022/05/13 10:46:26;;;;;;;7.20;3.50;;;24.70;66.40;;;;;;5045446;28;20451;-84
2022/05/13 10:48:55;;;;;;;6.17;3.80;;;24.40;68.20;;;;;;5035117;28;20457;-84
2022/05/13 10:51:29;;;;;;;9.10;3.93;;;24.20;68.20;;;;;;5041267;28;20437;-84
2022/05/13 10:54:17;;;;;;;7.20;4.80;;;24.00;70.00;;;;;;5071441;23;20517;-82
2022/05/13 10:56:52;;;;;;;8.70;4.27;;;23.80;71.60;;;;;;5064062;28;20561;-82
2022/05/13 10:59:38;;;;;;;6.80;3.80;;;23.80;71.70;;;;;;5062458;28;20487;-82
2022/05/13 11:02:27;;;;;;;7.20;3.67;;;23.60;71.70;;;;;;5075651;28;20479;-82
2022/05/13 11:05:03;;;;;;;7.70;4.60;;;23.70;71.60;;;;;;5059322;28;20426;-81
2022/05/13 11:07:35;;;;;;;5.30;3.90;;;23.70;70.70;;;;;;5051758;28;20433;-81
2022/05/13 11:10:08;;;;;;;9.40;4.67;;;23.60;70.60;;;;;;5054643;28;20478;-81
2022/05/13 11:12:43;;;;;;;5.23;3.67;;;23.70;71.10;;;;;;5050872;28;20469;-81
2022/05/13 11:15:18;;;;;;;8.23;3.70;;;23.70;70.80;;;;;;5052220;28;20446;-86
2022/05/13 11:17:59;;;;;;;6.30;3.57;;;23.70;70.70;;;;;;5071708;28;20596;-82
2022/05/13 11:20:36;;;;;;;8.70;4.53;;;23.90;70.30;;;;;;5054792;28;20530;-81
2022/05/13 11:23:13;;;;;;;5.47;4.03;;;24.10;70.20;;;;;;5059745;28;20449;-81
2022/05/13 11:25:56;;;;;;;7.73;3.57;;;24.10;70.00;;;;;;5050816;28;20451;-82
2022/05/13 11:28:50;;;;;;;10.20;3.80;;;24.40;69.80;;;;;;5044107;28;20452;-82
2022/05/13 11:31:29;;;;;;;7.90;4.30;;;24.80;69.10;;;;;;5041979;28;20817;-81
2022/05/13 11:34:05;;;;;;;6.27;5.03;;;25.20;69.10;;;;;;5050702;28;20472;-81
2022/05/13 11:36:41;;;;;;;5.63;4.20;;;25.70;68.10;;;;;;5046798;28;20437;-81
2022/05/13 11:39:40;;;;;;;7.37;5.17;;;25.60;66.90;;;;;;5049749;28;20476;-81
2022/05/13 11:45:31;;;;;;;8.03;4.80;;;25.10;67.40;;;;;;5042648;28;20436;-82
2022/05/13 11:48:02;;;;;;;5.50;4.13;;;25.20;66.80;;;;;;5046154;28;20460;-81
2022/05/13 11:50:31;;;;;;;9.03;3.97;;;24.80;67.80;;;;;;5042509;28;20433;-80
2022/05/13 11:53:00;;;;;;;7.60;4.00;;;24.50;67.80;;;;;;5041192;28;20484;-81
2022/05/13 11:55:48;;;;;;;7.90;4.20;;;24.00;70.50;;;;;;5033646;28;20437;-81
2022/05/13 11:58:42;;;;;;;4.60;4.10;;;24.10;71.00;;;;;;5041267;28;20440;-82
2022/05/13 12:01:10;;;;;;;6.33;4.47;;;24.20;70.00;;;;;;5036113;28;20805;-81
2022/05/13 12:03:39;;;;;;;9.90;5.83;;;24.50;69.10;;;;;;5039923;28;20469;-81
2022/05/13 12:06:10;;;;;;;6.87;4.07;;;25.00;68.20;;;;;;5053568;28;20466;-81
2022/05/13 12:08:43;;;;;;;4.90;3.50;;;25.10;67.40;;;;;;5037438;28;20460;-81
2022/05/13 12:11:46;;;;;;;8.20;5.47;;;24.90;66.50;;;;;;5040522;28;20453;-81
2022/05/13 12:14:25;;;;;;;4.50;3.27;;;25.00;67.80;;;;;;5043518;28;20952;-81
2022/05/13 12:17:02;;;;;;;8.33;4.17;;;25.60;66.30;;;;;;5040564;28;20445;-81
2022/05/13 12:19:39;;;;;;;6.50;4.67;;;26.80;63.70;;;;;;5039144;28;20474;-81
2022/05/13 12:22:20;;;;;;;4.93;3.30;;;27.80;60.30;;;;;;5044364;28;20476;-81
2022/05/13 12:25:01;;;;;;;4.30;3.90;;;28.10;59.50;;;;;;5043710;28;20452;-81
2022/05/13 12:27:31;;;;;;;6.60;3.63;;;29.30;57.20;;;;;;5038446;28;20507;-81
2022/05/13 12:30:07;;;;;;;6.50;2.90;;;30.40;55.30;;;;;;5038901;28;20450;-81
2022/05/13 12:32:46;;;;;;;4.83;3.50;;;32.60;51.90;;;;;;5039518;28;20464;-82
2022/05/13 12:38:10;;;;;;;6.13;3.77;;;34.30;47.60;;;;;;5045385;28;20498;-81
2022/05/13 12:40:45;;;;;;;4.60;3.17;;;34.50;45.60;;;;;;5035439;28;20464;-81
2022/05/13 12:43:18;;;;;;;7.37;3.23;;;33.70;44.60;;;;;;5043053;28;21047;-81
2022/05/13 12:46:00;;;;;;;8.13;3.50;;;32.40;46.70;;;;;;5045030;28;20442;-81
2022/05/13 12:48:27;;;;;;;3.83;3.27;;;33.30;47.60;;;;;;5046994;28;20437;-81
2022/05/13 12:51:18;;;;;;;4.00;3.13;;;32.60;47.60;;;;;;5049547;28;20499;-83
2022/05/13 12:53:51;;;;;;;7.73;3.50;;;33.60;46.60;;;;;;5045276;28;20483;-82
2022/05/13 12:56:27;;;;;;;4.43;3.80;;;34.50;44.90;;;;;;5046256;28;20452;-81
2022/05/13 12:59:02;;;;;;;3.73;3.00;;;34.90;43.30;;;;;;5051952;28;21996;-82
2022/05/13 13:01:30;;;;;;;7.03;3.23;;;34.70;43.50;;;;;;5045323;28;20441;-83
2022/05/13 13:03:57;;;;;;;5.77;3.30;;;35.50;42.80;;;;;;5048366;28;20461;-82
2022/05/13 13:06:35;;;;;;;4.57;3.80;;;36.30;42.10;;;;;;5044936;28;20441;-80
2022/05/13 13:09:03;;;;;;;6.03;3.27;;;35.90;41.00;;;;;;5044489;28;20444;-82
2022/05/13 13:11:36;;;;;;;5.37;3.20;;;37.00;39.50;;;;;;5048932;28;20446;-84
2022/05/13 13:14:16;;;;;;;3.90;3.00;;;36.80;39.20;;;;;;5063713;28;20428;-82
2022/05/13 13:16:49;;;;;;;5.07;3.20;;;36.00;38.60;;;;;;5057111;28;20443;-82
2022/05/13 13:19:21;;;;;;;5.83;3.37;;;33.70;40.70;;;;;;5065066;28;20451;-82
2022/05/13 13:21:53;;;;;;;4.87;3.60;;;31.60;43.10;;;;;;5064711;28;20455;-82
2022/05/13 13:24:26;;;;;;;7.23;4.90;;;30.30;45.90;;;;;;5044632;28;20468;-82
2022/05/13 13:26:54;;;;;;;4.60;3.20;;;29.10;48.30;;;;;;5060342;28;20448;-82
2022/05/13 13:29:24;;;;;;;6.33;4.90;;;28.40;49.90;;;;;;5065768;28;20472;-82